WS16 weather

Scherrico Meadows Airport
Mosinee, Wisconsin, United States

Public forecast

Using degrees Fahrenheit for public forecast. Weather courtesy of forecast.io.

METAR (pilot weather report)

Closest report is Central Wisconsin Airport, 7.1 nm (13.1 km) SE. Retrieved 2019/08/24 16:55 UTC (25 minutes ago):

KCWA 241655Z 14009KT 10SM BKN038 19/11 A3032

TAF (pilot weather forecast)

Closest forecast is Central Wisconsin Airport, 7.1 nm (13.1 km) SE. Retrieved 2019/08/24 12:42 UTC (5 hours ago):

TAF KCWA 241141Z 2412/2512 10004KT P6SM SKC FM241500 13007KT P6SM SCT045 FM250100 12003KT P6SM SKC FM250700 11003KT P6SM SCT150